Time,TemperatureF,DewpointF,PressureIn,WindDirection,WindDirectionDegrees,WindSpeedMPH,WindSpeedGustMPH,Humidity,HourlyPrecipIn,Conditions,Clouds,dailyrainin,SoftwareType,DateUTC
2013-06-12 00:00:00,54.7,54.1,29.91,WSW,242,7.0,9.0,98,0.00,CLR,,0.00,WeatherDisplay:10.37,2013-06-12 07:00:00,
2013-06-12 00:14:00,54.7,54.1,29.91,WSW,251,5.0,8.0,98,0.00,CLR,,0.00,WeatherDisplay:10.37,2013-06-12 07:14:00,
2013-06-12 00:29:00,54.7,54.1,29.91,West,275,6.0,9.0,98,0.00,CLR,,0.00,WeatherDisplay:10.37,2013-06-12 07:29:00,
2013-06-12 00:44:00,54.5,53.9,29.88,West,268,6.0,11.0,98,0.00,CLR,,0.00,WeatherDisplay:10.37,2013-06-12 07:44:00,
2013-06-12 01:00:00,54.5,53.9,29.88,WNW,284,7.0,12.0,98,0.00,CLR,,0.00,WeatherDisplay:10.37,2013-06-12 08:00:00,
2013-06-12 01:14:00,54.5,53.9,29.91,West,279,7.0,13.0,98,0.00,CLR,,0.00,WeatherDisplay:10.37,2013-06-12 08:14:00,
2013-06-12 01:29:00,54.3,53.8,29.88,West,271,7.0,10.0,98,0.00,CLR,,0.00,WeatherDisplay:10.37,2013-06-12 08:29:00,
2013-06-12 01:44:00,54.1,53.6,29.88,West,274,6.0,10.0,98,0.00,CLR,,0.00,WeatherDisplay:10.37,2013-06-12 08:44:00,
2013-06-12 01:59:00,54.0,53.4,29.91,West,269,5.0,11.0,98,0.00,CLR,,0.00,WeatherDisplay:10.37,2013-06-12 08:59:00,
2013-06-12 02:14:00,53.8,53.2,29.91,West,272,3.0,8.0,98,0.00,CLR,,0.00,WeatherDisplay:10.37,2013-06-12 09:14:00,
2013-06-12 02:29:00,53.6,53.0,29.88,West,268,3.0,6.0,98,0.00,CLR,,0.00,WeatherDisplay:10.37,2013-06-12 09:29:00,
2013-06-12 02:44:00,53.1,52.5,29.88,South,190,2.0,6.0,98,0.00,CLR,,0.00,WeatherDisplay:10.37,2013-06-12 09:44:00,
2013-06-12 02:59:00,52.3,51.8,29.88,South,169,2.0,5.0,98,0.00,CLR,,0.00,WeatherDisplay:10.37,2013-06-12 09:59:00,
2013-06-12 03:14:00,52.2,51.7,29.88,SSE,158,3.0,6.0,98,0.00,CLR,,0.00,WeatherDisplay:10.37,2013-06-12 10:14:00,
2013-06-12 03:44:00,52.0,51.5,29.88,SSE,159,3.0,7.0,98,0.00,CLR,,0.00,WeatherDisplay:10.37,2013-06-12 10:44:00,
2013-06-12 04:14:00,52.7,52.2,29.88,West,260,7.0,9.0,98,0.00,CLR,,0.00,WeatherDisplay:10.37,2013-06-12 11:14:00,
2013-06-12 04:29:00,53.0,52.4,29.88,West,281,7.0,10.0,98,0.00,CLR,,0.00,WeatherDisplay:10.37,2013-06-12 11:29:00,
2013-06-12 04:44:00,53.3,52.8,29.88,WNW,287,8.0,9.0,98,0.00,CLR,,0.00,WeatherDisplay:10.37,2013-06-12 11:44:00,
2013-06-12 04:59:00,53.4,52.9,29.88,WNW,292,7.0,8.0,98,0.00,CLR,,0.00,WeatherDisplay:10.37,2013-06-12 11:59:00,
2013-06-12 05:14:00,53.1,52.5,29.88,WNW,292,7.0,8.0,98,0.00,CLR,,0.00,WeatherDisplay:10.37,2013-06-12 12:14:00,
2013-06-12 05:29:00,52.9,52.3,29.88,WNW,288,5.0,8.0,98,0.00,CLR,,0.00,WeatherDisplay:10.37,2013-06-12 12:29:00,
2013-06-12 05:44:00,52.3,51.8,29.91,WSW,254,3.0,6.0,98,0.00,CLR,,0.00,WeatherDisplay:10.37,2013-06-12 12:44:00,
2013-06-12 05:59:00,51.6,51.1,29.91,NW,310,0.0,5.0,98,0.00,CLR,,0.00,WeatherDisplay:10.37,2013-06-12 12:59:00,
2013-06-12 06:14:00,51.8,51.3,29.91,North,6,3.0,5.0,98,0.00,CLR,,0.00,WeatherDisplay:10.37,2013-06-12 13:14:00,
2013-06-12 06:29:00,51.6,51.1,29.91,WNW,298,0.0,5.0,98,0.00,CLR,,0.00,WeatherDisplay:10.37,2013-06-12 13:29:00,
2013-06-12 06:44:00,53.8,53.2,29.91,SSE,166,0.0,2.0,98,0.00,CLR,,0.00,WeatherDisplay:10.37,2013-06-12 13:44:00,
2013-06-12 06:59:00,57.4,56.9,29.91,West,260,3.0,5.0,98,0.00,CLR,,0.00,WeatherDisplay:10.37,2013-06-12 13:59:00,
2013-06-12 07:13:00,58.8,58.3,29.91,WNW,289,5.0,6.0,98,0.00,CLR,,0.00,WeatherDisplay:10.37,2013-06-12 14:13:00,
2013-06-12 07:28:00,61.0,60.5,29.94,WNW,293,3.0,6.0,98,0.00,CLR,,0.00,WeatherDisplay:10.37,2013-06-12 14:28:00,
2013-06-12 07:43:00,64.8,64.2,29.91,SW,234,1.0,3.0,98,0.00,CLR,,0.00,WeatherDisplay:10.37,2013-06-12 14:43:00,
2013-06-12 07:59:00,66.4,65.8,29.94,SSW,206,2.0,4.0,98,0.00,CLR,,0.00,WeatherDisplay:10.37,2013-06-12 14:59:00,
2013-06-12 08:13:00,67.6,67.1,29.94,SSW,203,3.0,6.0,98,0.00,CLR,,0.00,WeatherDisplay:10.37,2013-06-12 15:13:00,
2013-06-12 08:29:00,67.8,66.3,29.94,SW,217,2.0,5.0,95,0.00,CLR,,0.00,WeatherDisplay:10.37,2013-06-12 15:29:00,
2013-06-12 08:44:00,67.6,64.9,29.94,WSW,247,3.0,6.0,91,0.00,CLR,,0.00,WeatherDisplay:10.37,2013-06-12 15:44:00,
2013-06-12 08:58:00,67.6,64.0,29.94,WSW,253,5.0,7.0,88,0.00,CLR,,0.00,WeatherDisplay:10.37,2013-06-12 15:58:00,
2013-06-12 09:13:00,67.8,63.5,29.94,WSW,255,3.0,6.0,86,0.00,CLR,,0.00,WeatherDisplay:10.37,2013-06-12 16:13:00,
2013-06-12 09:28:00,68.2,62.5,29.94,WSW,256,6.0,7.0,82,0.00,CLR,,0.00,WeatherDisplay:10.37,2013-06-12 16:28:00,
2013-06-12 09:43:00,69.1,62.7,29.94,WSW,251,3.0,6.0,80,0.00,CLR,,0.00,WeatherDisplay:10.37,2013-06-12 16:43:00,
2013-06-12 09:59:00,68.7,61.6,29.94,West,264,5.0,7.0,78,0.00,CLR,,0.00,WeatherDisplay:10.37,2013-06-12 16:59:00,
2013-06-12 10:13:00,65.1,56.3,29.94,WNW,287,10.0,13.0,73,0.00,CLR,,0.00,WeatherDisplay:10.37,2013-06-12 17:13:00,
2013-06-12 10:28:00,63.9,57.2,29.94,WNW,292,12.0,13.0,79,0.00,CLR,,0.00,WeatherDisplay:10.37,2013-06-12 17:28:00,
2013-06-12 10:43:00,62.8,57.5,29.97,WNW,293,13.0,15.0,83,0.00,CLR,,0.00,WeatherDisplay:10.37,2013-06-12 17:43:00,
2013-06-12 11:00:00,62.4,59.8,29.97,WNW,292,14.0,16.0,91,0.00,CLR,,0.00,WeatherDisplay:10.37,2013-06-12 18:00:00,
2013-06-12 11:14:00,62.6,60.2,29.97,WNW,292,14.0,15.0,92,0.00,CLR,,0.00,WeatherDisplay:10.37,2013-06-12 18:14:00,
2013-06-12 11:29:00,62.6,60.5,29.97,WNW,292,15.0,17.0,93,0.00,CLR,,0.00,WeatherDisplay:10.37,2013-06-12 18:29:00,
2013-06-12 11:44:00,62.6,60.2,29.97,WNW,292,16.0,18.0,92,0.00,CLR,,0.00,WeatherDisplay:10.37,2013-06-12 18:44:00,
2013-06-12 11:59:00,62.2,60.5,29.97,WNW,292,16.0,19.0,94,0.00,CLR,,0.00,WeatherDisplay:10.37,2013-06-12 18:59:00,
2013-06-12 12:14:00,61.5,60.1,29.97,WNW,292,16.0,21.0,95,0.00,CLR,,0.00,WeatherDisplay:10.37,2013-06-12 19:14:00,
2013-06-12 12:29:00,61.6,60.4,29.97,WNW,292,21.0,23.0,96,0.00,CLR,,0.00,WeatherDisplay:10.37,2013-06-12 19:29:00,
2013-06-12 12:44:00,61.5,60.4,29.97,WNW,292,17.0,23.0,96,0.00,CLR,,0.00,WeatherDisplay:10.37,2013-06-12 19:44:00,
2013-06-12 12:59:00,61.7,60.5,29.94,WNW,292,18.0,24.0,96,0.00,CLR,,0.00,WeatherDisplay:10.37,2013-06-12 19:59:00,
2013-06-12 13:14:00,61.3,60.2,29.97,WNW,292,21.0,24.0,96,0.00,CLR,,0.00,WeatherDisplay:10.37,2013-06-12 20:14:00,
2013-06-12 13:29:00,61.3,60.1,29.94,WNW,295,17.0,26.0,96,0.00,CLR,,0.00,WeatherDisplay:10.37,2013-06-12 20:29:00,
2013-06-12 13:44:00,61.3,60.1,29.94,WNW,295,26.0,29.0,96,0.00,CLR,,0.00,WeatherDisplay:10.37,2013-06-12 20:44:00,
2013-06-12 13:59:00,61.3,60.2,29.94,WNW,297,23.0,32.0,96,0.00,CLR,,0.00,WeatherDisplay:10.37,2013-06-12 20:59:00,
2013-06-12 14:14:00,60.8,59.7,29.94,WNW,294,25.0,33.0,96,0.00,CLR,,0.00,WeatherDisplay:10.37,2013-06-12 21:14:00,
2013-06-12 14:29:00,60.8,59.7,29.94,WNW,293,25.0,33.0,96,0.00,CLR,,0.00,WeatherDisplay:10.37,2013-06-12 21:29:00,
2013-06-12 14:44:00,61.0,59.8,29.94,WNW,292,26.0,33.0,96,0.00,CLR,,0.00,WeatherDisplay:10.37,2013-06-12 21:44:00,
2013-06-12 14:59:00,61.3,60.1,29.94,WNW,293,25.0,35.0,96,0.00,,,0.00,WeatherDisplay:10.37,2013-06-12 21:59:00,
2013-06-12 15:14:00,61.1,59.6,29.94,WNW,292,30.0,35.0,95,0.00,,,0.00,WeatherDisplay:10.37,2013-06-12 22:14:00,
2013-06-12 15:29:00,61.0,59.5,29.94,WNW,293,28.0,36.0,95,0.00,,,0.00,WeatherDisplay:10.37,2013-06-12 22:29:00,
2013-06-12 15:44:00,61.3,59.9,29.94,WNW,294,30.0,35.0,95,0.00,,,0.00,WeatherDisplay:10.37,2013-06-12 22:44:00,
2013-06-12 15:59:00,60.8,59.1,29.94,WNW,292,33.0,38.0,94,0.00,,,0.00,WeatherDisplay:10.37,2013-06-12 22:59:00,
2013-06-12 16:14:00,60.8,59.4,29.94,WNW,292,31.0,40.0,95,0.00,,,0.00,WeatherDisplay:10.37,2013-06-12 23:14:00,
2013-06-12 16:29:00,61.0,59.5,29.94,WNW,292,28.0,38.0,95,0.00,,,0.00,WeatherDisplay:10.37,2013-06-12 23:29:00,
2013-06-12 16:44:00,60.7,59.2,29.94,WNW,293,30.0,36.0,95,0.00,,,0.00,WeatherDisplay:10.37,2013-06-12 23:44:00,
2013-06-12 16:59:00,60.4,59.3,29.94,WNW,293,31.0,36.0,96,0.00,,,0.00,WeatherDisplay:10.37,2013-06-12 23:59:00,
2013-06-12 17:14:00,60.4,59.3,29.94,WNW,293,31.0,37.0,96,0.00,,,0.00,WeatherDisplay:10.37,2013-06-13 00:14:00,
2013-06-12 17:29:00,60.1,58.9,29.94,WNW,293,31.0,37.0,96,0.00,,,0.00,WeatherDisplay:10.37,2013-06-13 00:29:00,
2013-06-12 17:44:00,59.9,58.7,29.94,WNW,292,31.0,43.0,96,0.00,,,0.00,WeatherDisplay:10.37,2013-06-13 00:44:00,
2013-06-12 17:59:00,59.5,58.4,29.94,WNW,292,33.0,39.0,96,0.00,,,0.00,WeatherDisplay:10.37,2013-06-13 00:59:00,
2013-06-12 18:14:00,59.5,58.7,29.94,WNW,294,32.0,40.0,97,0.00,,,0.00,WeatherDisplay:10.37,2013-06-13 01:14:00,
2013-06-12 18:29:00,59.3,58.8,29.94,WNW,293,28.0,38.0,98,0.00,,,0.00,WeatherDisplay:10.37,2013-06-13 01:29:00,
2013-06-12 18:44:00,59.0,58.4,29.94,WNW,293,32.0,37.0,98,0.00,,,0.00,WeatherDisplay:10.37,2013-06-13 01:44:00,
2013-06-12 18:59:00,58.8,58.3,29.94,WNW,292,30.0,36.0,98,0.00,,,0.00,WeatherDisplay:10.37,2013-06-13 01:59:00,
2013-06-12 19:14:00,58.7,58.1,29.94,WNW,293,31.0,36.0,98,0.00,,,0.00,WeatherDisplay:10.37,2013-06-13 02:14:00,
2013-06-12 19:29:00,58.3,57.7,29.94,WNW,292,31.0,37.0,98,0.00,,,0.00,WeatherDisplay:10.37,2013-06-13 02:29:00,
2013-06-12 19:44:00,57.9,57.4,29.94,WNW,293,30.0,37.0,98,0.00,,,0.00,WeatherDisplay:10.37,2013-06-13 02:44:00,
2013-06-12 19:59:00,57.6,57.0,29.97,WNW,296,26.0,33.0,98,0.00,CLR,,0.00,WeatherDisplay:10.37,2013-06-13 02:59:00,
2013-06-12 20:14:00,56.8,56.3,29.94,WNW,300,28.0,33.0,98,0.00,,,0.00,WeatherDisplay:10.37,2013-06-13 03:14:00,
2013-06-12 20:29:00,55.9,55.4,29.97,WNW,300,23.0,32.0,98,0.00,CLR,,0.00,WeatherDisplay:10.37,2013-06-13 03:29:00,
2013-06-12 20:44:00,55.4,54.8,29.94,WNW,298,24.0,31.0,98,0.00,CLR,,0.00,WeatherDisplay:10.37,2013-06-13 03:44:00,
2013-06-12 20:59:00,55.0,54.5,29.94,WNW,299,25.0,31.0,98,0.00,CLR,,0.00,WeatherDisplay:10.37,2013-06-13 03:59:00,
2013-06-12 21:15:00,55.1,54.6,29.94,WNW,299,25.0,32.0,98,0.00,CLR,,0.00,WeatherDisplay:10.37,2013-06-13 04:15:00,
2013-06-12 21:30:00,55.0,54.5,29.97,WNW,301,24.0,31.0,98,0.00,CLR,,0.00,WeatherDisplay:10.37,2013-06-13 04:30:00,
2013-06-12 21:44:00,55.0,54.5,29.94,WNW,301,23.0,30.0,98,0.00,CLR,,0.00,WeatherDisplay:10.37,2013-06-13 04:44:00,
2013-06-12 22:00:00,54.6,54.1,29.97,WNW,298,22.0,28.0,98,0.00,CLR,,0.00,WeatherDisplay:10.37,2013-06-13 05:00:00,
2013-06-12 22:14:00,54.5,53.9,29.97,WNW,301,24.0,28.0,98,0.00,CLR,,0.00,WeatherDisplay:10.37,2013-06-13 05:14:00,
2013-06-12 22:29:00,54.5,53.9,29.97,WNW,297,23.0,28.0,98,0.00,CLR,,0.00,WeatherDisplay:10.37,2013-06-13 05:29:00,
2013-06-12 22:44:00,54.1,53.6,29.97,WNW,300,22.0,26.0,98,0.00,CLR,,0.00,WeatherDisplay:10.37,2013-06-13 05:44:00,
2013-06-12 22:59:00,54.0,53.4,29.97,WNW,301,21.0,26.0,98,0.00,CLR,,0.00,WeatherDisplay:10.37,2013-06-13 05:59:00,
2013-06-12 23:14:00,53.6,53.0,29.97,WNW,300,23.0,29.0,98,0.00,CLR,,0.00,WeatherDisplay:10.37,2013-06-13 06:14:00,
2013-06-12 23:29:00,53.4,52.9,29.97,WNW,301,21.0,26.0,98,0.00,CLR,,0.00,WeatherDisplay:10.37,2013-06-13 06:29:00,
2013-06-12 23:44:00,53.2,52.7,29.97,NW,309,16.0,26.0,98,0.00,CLR,,0.00,WeatherDisplay:10.37,2013-06-13 06:44:00,
2013-06-12 23:59:00,53.1,52.5,29.97,NW,313,21.0,25.0,98,0.00,CLR,,0.00,WeatherDisplay:10.37,2013-06-13 06:59:00,